METAR AND TAF INFORMATION
METAR FOR LIMC
ADDS - METARS form results

(0747 UTC 26 January 2020)
Data provider http://aviationweather.gov/metar/data/
 
METAR text: LIMC 260720Z 35004KT 8000 BKN060 00/00 Q1021 NOSIG
Conditions at: LIMC (MILANO/MALPENSA , IT) observed 0720 UTC 26 January 2020
Temperature: 0.0°C (32°F)
Dewpoint: 0.0°C (32°F) [RH = 100%]
Pressure (altimeter): 30.15 inches Hg (1021.0 mb)
Winds: from the N (350 degrees) at 5 MPH (4 knots; 2.1 m/s)
Visibility: 5 miles ( 8 km)
Ceiling: 6000 feet AGL
Clouds: broken clouds at 6000 feet AGL
Weather: no significant weather observed at this time

METAR text: LIMC 260650Z 01005KT 8000 BKN060 M00/M01 Q1021 NOSIG
Conditions at: LIMC (MILANO/MALPENSA , IT) observed 0650 UTC 26 January 2020
Temperature: 0.0°C (32°F)
Dewpoint: -1.0°C (30°F) [RH = 93%]
Pressure (altimeter): 30.15 inches Hg (1021.0 mb)
Winds: from the N (10 degrees) at 6 MPH (5 knots; 2.6 m/s)
Visibility: 5 miles ( 8 km)
Ceiling: 6000 feet AGL
Clouds: broken clouds at 6000 feet AGL
Weather: no significant weather observed at this time

Forecast for: LIMC (MILANO/MALPENSA , IT)
Text: TAF LIMC 260500Z 2606/2712 VRB05KT 8000 SCT060
Forecast period: 0600 UTC 26 January 2020 to 1200 UTC 27 January 2020
Forecast type: FROM: standard forecast or significant change
Winds: variable direction winds at 6 MPH (5 knots; 2.6 m/s)
Visibility: 5 miles (8 km)
Ceiling: at least 12,000 feet AGL
Clouds: scattered clouds at 6000 feet AGL
Weather: no significant weather forecast for this period
Text: TEMPO 2606/2608 3000 BCFG
Forecast period: 0600 to 0800 UTC 26 January 2020
Forecast type: TEMPORARY: The following changes expected for less than half the time period
Visibility: 1.86 miles (2.99 km)
Ceiling: unknown
Clouds: missing
Weather: BCFG  (patches of fog)
Text: TEMPO 2622/2708 3000 BCFG
Forecast period: 2200 UTC 26 January 2020 to 0800 UTC 27 January 2020
Forecast type: TEMPORARY: The following changes expected for less than half the time period
Visibility: 1.86 miles (2.99 km)
Ceiling: unknown
Clouds: missing
Weather: BCFG  (patches of fog)

 AIRPORT MAP

 RUNWAY INFORMATION

 AIRPORT FREQUENCIES
Type APP Name MILANO APP Frequency 132.7 MHZ
Type ATIS Name ATIS Frequency 120.025 MHZ
Type CLD Name CLNC DEL Frequency 120.9 MHZ
Type DEP Name MILANO DEP Frequency 126.75 MHZ
Type GND Name GND Frequency 121.9 MHZ
Type TWR Name TWR Frequency 119 MHZ

 AIRPORT NEAR NAVIGATION AIDS
Type VOR-DME Name Malpensa Frequency 111200 KHZ
Type NDB Name Malpensa Frequency 364 KHZ



2018 Air Astana Virtual Airline